createdAt,value
2019-01-29T00:00:51.121Z,979.5
2019-01-29T00:01:51.788Z,979.6
2019-01-29T00:02:52.456Z,979.6
2019-01-29T00:03:53.123Z,979.6
2019-01-29T00:04:53.796Z,979.6
2019-01-29T00:05:54.507Z,979.6
2019-01-29T00:06:55.174Z,979.6
2019-01-29T00:07:55.842Z,979.6
2019-01-29T00:08:56.509Z,979.7
2019-01-29T00:09:57.175Z,979.7
2019-01-29T00:10:57.843Z,979.7
2019-01-29T00:11:58.510Z,979.7
2019-01-29T00:12:59.178Z,979.7
2019-01-29T00:13:59.845Z,979.8
2019-01-29T00:15:00.512Z,979.7
2019-01-29T00:16:01.180Z,979.7
2019-01-29T00:17:01.852Z,979.7
2019-01-29T00:18:02.566Z,979.7
2019-01-29T00:19:03.191Z,979.7
2019-01-29T00:20:03.856Z,979.8
2019-01-29T00:21:04.524Z,979.9
2019-01-29T00:22:05.189Z,979.8
2019-01-29T00:23:05.855Z,979.9
2019-01-29T00:24:06.521Z,979.9
2019-01-29T00:25:07.191Z,979.9
2019-01-29T00:26:07.852Z,980.0
2019-01-29T00:27:08.517Z,980.1
2019-01-29T00:28:09.184Z,980.0
2019-01-29T00:29:09.851Z,980.0
2019-01-29T00:30:10.515Z,980.0
2019-01-29T00:31:11.181Z,980.2
2019-01-29T00:32:11.846Z,980.1
2019-01-29T00:33:12.512Z,980.1
2019-01-29T00:34:13.226Z,980.1
2019-01-29T00:35:13.892Z,980.1
2019-01-29T00:36:14.557Z,980.2
2019-01-29T00:37:15.224Z,980.2
2019-01-29T00:38:15.890Z,980.2
2019-01-29T00:39:16.555Z,980.2
2019-01-29T00:40:17.220Z,980.2
2019-01-29T00:41:17.888Z,980.2
2019-01-29T00:42:18.553Z,980.2
2019-01-29T00:43:19.219Z,980.4
2019-01-29T00:44:19.885Z,980.3
2019-01-29T00:45:20.553Z,980.3
2019-01-29T00:46:21.218Z,980.3
2019-01-29T00:47:21.883Z,980.4
2019-01-29T00:48:22.551Z,980.4
2019-01-29T00:49:23.268Z,980.4
2019-01-29T00:50:23.931Z,980.4
2019-01-29T00:51:24.598Z,980.4
2019-01-29T00:52:25.262Z,980.5
2019-01-29T00:53:25.930Z,980.5
2019-01-29T00:54:26.594Z,980.6
2019-01-29T00:55:27.261Z,980.5
2019-01-29T00:56:27.925Z,980.5
2019-01-29T00:57:28.591Z,980.5
2019-01-29T00:58:29.257Z,980.5
2019-01-29T00:59:29.922Z,980.6
2019-01-29T01:00:30.588Z,980.6
2019-01-29T01:01:31.253Z,980.6
2019-01-29T01:02:31.921Z,980.6
2019-01-29T01:03:32.586Z,980.6
2019-01-29T01:04:33.252Z,980.6
2019-01-29T01:05:33.918Z,980.6
2019-01-29T01:06:34.583Z,980.7
2019-01-29T01:07:35.249Z,980.7
2019-01-29T01:08:35.914Z,980.7
2019-01-29T01:09:36.583Z,980.7
2019-01-29T01:10:37.246Z,980.6
2019-01-29T01:11:37.912Z,980.7
2019-01-29T01:12:38.577Z,980.8
2019-01-29T01:13:39.243Z,980.8
2019-01-29T01:14:39.909Z,980.8
2019-01-29T01:15:40.575Z,980.8
2019-01-29T01:16:41.242Z,980.9
2019-01-29T01:17:41.955Z,980.8
2019-01-29T01:18:42.621Z,980.9
2019-01-29T01:19:43.289Z,980.8
2019-01-29T01:20:43.954Z,980.9
2019-01-29T01:21:44.619Z,981.0
2019-01-29T01:22:50.796Z,981.0
2019-01-29T01:23:45.993Z,981.0
2019-01-29T01:24:46.658Z,981.0
2019-01-29T01:25:47.323Z,981.0
2019-01-29T01:26:47.989Z,981.0
2019-01-29T01:27:48.655Z,981.1
2019-01-29T01:28:49.323Z,981.0
2019-01-29T01:29:49.990Z,981.0
2019-01-29T01:30:50.658Z,981.1
2019-01-29T01:31:51.322Z,981.1
2019-01-29T01:32:51.987Z,981.1
2019-01-29T01:33:52.656Z,981.1
2019-01-29T01:34:53.371Z,981.2
2019-01-29T01:35:54.034Z,981.2
2019-01-29T01:36:54.701Z,981.2
2019-01-29T01:37:55.368Z,981.2
2019-01-29T01:38:56.034Z,981.2
2019-01-29T01:39:56.700Z,981.1
2019-01-29T01:40:57.415Z,981.2
2019-01-29T01:41:58.080Z,981.2
2019-01-29T01:42:58.749Z,981.2
2019-01-29T01:43:59.413Z,981.2
2019-01-29T01:45:00.275Z,981.2
2019-01-29T01:46:00.912Z,981.2
2019-01-29T01:47:01.577Z,981.2
2019-01-29T01:48:02.245Z,981.2
2019-01-29T01:49:02.909Z,981.2
2019-01-29T01:50:03.576Z,981.2
2019-01-29T01:51:04.242Z,981.2
2019-01-29T01:52:04.910Z,981.2
2019-01-29T01:53:05.575Z,981.3
2019-01-29T01:54:06.240Z,981.3
2019-01-29T01:55:06.909Z,981.3
2019-01-29T01:56:07.573Z,981.3
2019-01-29T01:57:08.243Z,981.4
2019-01-29T01:58:08.906Z,981.4
2019-01-29T01:59:09.574Z,981.4
2019-01-29T02:00:10.239Z,981.4
2019-01-29T02:01:10.906Z,981.4
2019-01-29T02:02:11.571Z,981.4
2019-01-29T02:03:12.238Z,981.4
2019-01-29T02:04:12.907Z,981.4
2019-01-29T02:05:13.571Z,981.4
2019-01-29T02:06:14.236Z,981.5
2019-01-29T02:07:14.902Z,981.5
2019-01-29T02:08:15.570Z,981.5
2019-01-29T02:09:16.235Z,981.5
2019-01-29T02:10:16.900Z,981.6
2019-01-29T02:11:17.565Z,981.6
2019-01-29T02:12:18.232Z,981.6
2019-01-29T02:13:18.899Z,981.6
2019-01-29T02:14:19.566Z,981.6
2019-01-29T02:15:20.232Z,981.6
2019-01-29T02:16:20.897Z,981.7
2019-01-29T02:17:21.565Z,981.7
2019-01-29T02:18:22.233Z,981.7
2019-01-29T02:19:22.897Z,981.7
2019-01-29T02:20:23.610Z,981.7
2019-01-29T02:21:24.279Z,981.7
2019-01-29T02:22:24.945Z,981.8
2019-01-29T02:23:25.610Z,981.8
2019-01-29T02:24:26.275Z,981.8
2019-01-29T02:25:26.942Z,981.7
2019-01-29T02:26:27.608Z,981.8
2019-01-29T02:27:28.273Z,981.8
2019-01-29T02:28:28.938Z,981.8
2019-01-29T02:29:29.602Z,981.9
2019-01-29T02:30:30.271Z,981.9
2019-01-29T02:31:30.975Z,981.8
2019-01-29T02:32:31.643Z,981.8
2019-01-29T02:33:32.306Z,981.9
2019-01-29T02:34:32.972Z,981.9
2019-01-29T02:35:33.640Z,981.9
2019-01-29T02:36:34.306Z,981.9
2019-01-29T02:37:34.972Z,981.9
2019-01-29T02:38:35.639Z,981.9
2019-01-29T02:39:36.304Z,981.9
2019-01-29T02:40:36.969Z,981.9
2019-01-29T02:41:37.636Z,981.9
2019-01-29T02:42:38.300Z,981.9
2019-01-29T02:43:38.966Z,981.9
2019-01-29T02:44:39.634Z,982.0
2019-01-29T02:45:40.299Z,982.0
2019-01-29T02:46:40.964Z,982.0
2019-01-29T02:47:41.629Z,982.0
2019-01-29T02:48:42.297Z,982.0
2019-01-29T02:49:42.963Z,982.0
2019-01-29T02:50:43.629Z,982.0
2019-01-29T02:51:44.296Z,982.0
2019-01-29T02:52:44.963Z,982.0
2019-01-29T02:53:45.627Z,982.0
2019-01-29T02:54:46.293Z,982.0
2019-01-29T02:55:46.960Z,982.0
2019-01-29T02:56:47.624Z,982.0
2019-01-29T02:57:48.289Z,982.0
2019-01-29T02:58:48.960Z,982.0
2019-01-29T02:59:49.620Z,982.1
2019-01-29T03:00:50.286Z,982.1
2019-01-29T03:01:50.954Z,982.1
2019-01-29T03:02:51.618Z,982.1
2019-01-29T03:03:52.288Z,982.1
2019-01-29T03:04:53.476Z,982.1
2019-01-29T03:05:54.286Z,982.1
2019-01-29T03:06:54.999Z,982.2
2019-01-29T03:07:55.665Z,982.2
2019-01-29T03:08:56.332Z,982.2
2019-01-29T03:09:56.996Z,982.2
2019-01-29T03:10:57.661Z,982.2
2019-01-29T03:11:58.329Z,982.2
2019-01-29T03:12:58.994Z,982.3
2019-01-29T03:13:59.662Z,982.2
2019-01-29T03:15:00.325Z,982.3
2019-01-29T03:16:00.992Z,982.3
2019-01-29T03:17:01.658Z,982.3
2019-01-29T03:18:02.324Z,982.3
2019-01-29T03:19:02.994Z,982.4
2019-01-29T03:20:03.656Z,982.3
2019-01-29T03:21:04.322Z,982.3
2019-01-29T03:22:04.989Z,982.3
2019-01-29T03:23:05.655Z,982.3
2019-01-29T03:24:06.320Z,982.4
2019-01-29T03:25:06.986Z,982.4
2019-01-29T03:26:07.669Z,982.4
2019-01-29T03:27:08.317Z,982.4
2019-01-29T03:28:08.983Z,982.4
2019-01-29T03:29:09.650Z,982.4
2019-01-29T03:30:10.318Z,982.4
2019-01-29T03:31:10.984Z,982.4
2019-01-29T03:32:11.646Z,982.4
2019-01-29T03:33:12.310Z,982.5
2019-01-29T03:34:12.976Z,982.4
2019-01-29T03:35:13.641Z,982.4
2019-01-29T03:36:14.305Z,982.5
2019-01-29T03:37:14.970Z,982.5
2019-01-29T03:38:15.686Z,982.5
2019-01-29T03:39:16.353Z,982.5
2019-01-29T03:40:17.017Z,982.5
2019-01-29T03:41:17.683Z,982.5
2019-01-29T03:42:18.349Z,982.6
2019-01-29T03:43:19.013Z,982.5
2019-01-29T03:44:19.678Z,982.5
2019-01-29T03:45:20.343Z,982.5
2019-01-29T03:46:21.009Z,982.5
2019-01-29T03:47:21.674Z,982.5
2019-01-29T03:48:22.340Z,982.5
2019-01-29T03:49:23.008Z,982.5
2019-01-29T03:50:23.687Z,982.5
2019-01-29T03:51:24.341Z,982.4
2019-01-29T03:52:25.005Z,982.5
2019-01-29T03:53:25.667Z,982.5
2019-01-29T03:54:26.332Z,982.5
2019-01-29T03:55:27.048Z,982.5
2019-01-29T03:56:27.712Z,982.5
2019-01-29T03:57:28.378Z,982.5
2019-01-29T03:58:29.043Z,982.6
2019-01-29T03:59:29.708Z,982.6
2019-01-29T04:00:30.373Z,982.6
2019-01-29T04:01:31.039Z,982.6
2019-01-29T04:02:31.754Z,982.6
2019-01-29T04:03:32.467Z,982.7
2019-01-29T04:04:33.130Z,982.6
2019-01-29T04:05:33.795Z,982.6
2019-01-29T04:06:34.459Z,982.7
2019-01-29T04:07:35.126Z,982.6
2019-01-29T04:08:35.790Z,982.7
2019-01-29T04:09:36.459Z,982.7
2019-01-29T04:10:37.121Z,982.7
2019-01-29T04:11:37.787Z,982.7
2019-01-29T04:12:38.451Z,982.7
2019-01-29T04:13:39.165Z,982.7
2019-01-29T04:14:39.829Z,982.6
2019-01-29T04:15:40.499Z,982.8
2019-01-29T04:16:41.249Z,982.7
2019-01-29T04:17:41.866Z,982.7
2019-01-29T04:18:42.532Z,982.7
2019-01-29T04:19:43.195Z,982.7
2019-01-29T04:20:43.866Z,982.7
2019-01-29T04:21:44.528Z,982.8
2019-01-29T04:22:45.981Z,982.8
2019-01-29T04:23:47.803Z,982.7
2019-01-29T04:24:48.420Z,982.7
2019-01-29T04:25:49.085Z,982.7
2019-01-29T04:26:49.781Z,982.7
2019-01-29T04:27:50.416Z,982.8
2019-01-29T04:28:51.081Z,982.8
2019-01-29T04:29:51.745Z,982.8
2019-01-29T04:30:52.411Z,982.8
2019-01-29T04:31:53.076Z,982.8
2019-01-29T04:32:53.742Z,982.8
2019-01-29T04:33:54.406Z,982.9
2019-01-29T04:34:55.070Z,982.9
2019-01-29T04:35:55.737Z,982.8
2019-01-29T04:36:56.402Z,982.8
2019-01-29T04:37:57.067Z,982.8
2019-01-29T04:38:57.732Z,982.8
2019-01-29T04:39:58.399Z,982.8
2019-01-29T04:40:59.064Z,982.8
2019-01-29T04:41:59.732Z,982.8
2019-01-29T04:43:00.441Z,982.8
2019-01-29T04:44:01.107Z,982.8
2019-01-29T04:45:01.772Z,982.8
2019-01-29T04:46:02.442Z,982.8
2019-01-29T04:47:03.102Z,982.8
2019-01-29T04:48:03.769Z,982.8
2019-01-29T04:49:04.433Z,982.8
2019-01-29T04:50:05.099Z,982.9
2019-01-29T04:51:05.764Z,982.8
2019-01-29T04:52:06.429Z,982.9
2019-01-29T04:53:07.099Z,982.9
2019-01-29T04:54:07.760Z,982.9
2019-01-29T04:55:08.425Z,982.9
2019-01-29T04:56:09.090Z,983.0
2019-01-29T04:57:09.754Z,982.9
2019-01-29T04:58:10.421Z,982.9
2019-01-29T04:59:11.086Z,982.8
2019-01-29T05:00:11.752Z,982.9
2019-01-29T05:01:12.417Z,982.9
2019-01-29T05:02:13.083Z,982.9
2019-01-29T05:03:13.748Z,982.9
2019-01-29T05:04:14.413Z,982.9
2019-01-29T05:05:15.078Z,982.9
2019-01-29T05:06:15.744Z,982.9
2019-01-29T05:07:16.411Z,982.9
2019-01-29T05:08:17.077Z,982.9
2019-01-29T05:09:17.741Z,982.8
2019-01-29T05:10:18.407Z,982.9
2019-01-29T05:11:19.074Z,982.8
2019-01-29T05:12:19.737Z,982.9
2019-01-29T05:13:20.402Z,982.8
2019-01-29T05:14:21.067Z,982.8
2019-01-29T05:15:21.738Z,982.9
2019-01-29T05:16:22.400Z,982.9
2019-01-29T05:17:23.065Z,982.9
2019-01-29T05:18:23.735Z,983.0
2019-01-29T05:19:24.396Z,982.9
2019-01-29T05:20:25.063Z,982.9
2019-01-29T05:21:25.727Z,982.9
2019-01-29T05:22:26.393Z,983.0
2019-01-29T05:23:27.057Z,983.0
2019-01-29T05:24:27.725Z,983.0
2019-01-29T05:25:28.391Z,983.1
2019-01-29T05:26:29.054Z,983.0
2019-01-29T05:27:29.720Z,983.1
2019-01-29T05:28:30.383Z,983.1
2019-01-29T05:29:31.053Z,983.1
2019-01-29T05:30:31.716Z,983.1
2019-01-29T05:31:32.381Z,983.2
2019-01-29T05:32:33.047Z,983.2
2019-01-29T05:33:33.713Z,983.1
2019-01-29T05:34:34.378Z,983.1
2019-01-29T05:35:35.043Z,983.1
2019-01-29T05:36:35.709Z,983.2
2019-01-29T05:37:36.374Z,983.2
2019-01-29T05:38:37.041Z,983.2
2019-01-29T05:39:37.707Z,983.2
2019-01-29T05:40:38.373Z,983.2
2019-01-29T05:41:39.037Z,983.2
2019-01-29T05:42:39.704Z,983.3
2019-01-29T05:43:40.369Z,983.2
2019-01-29T05:44:41.035Z,983.3
2019-01-29T05:45:41.700Z,983.3
2019-01-29T05:46:42.367Z,983.3
2019-01-29T05:47:43.035Z,983.4
2019-01-29T05:48:43.699Z,983.4
2019-01-29T05:49:44.366Z,983.4
2019-01-29T05:50:45.031Z,983.4
2019-01-29T05:51:45.698Z,983.4
2019-01-29T05:52:46.365Z,983.5
2019-01-29T05:53:47.028Z,983.4
2019-01-29T05:54:47.692Z,983.5
2019-01-29T05:55:48.357Z,983.5
2019-01-29T05:56:49.025Z,983.5
2019-01-29T05:57:49.690Z,983.5
2019-01-29T05:58:50.356Z,983.6
2019-01-29T05:59:51.022Z,983.6
2019-01-29T06:00:51.689Z,983.5
2019-01-29T06:01:52.353Z,983.5
2019-01-29T06:02:53.020Z,983.6
2019-01-29T06:03:53.687Z,983.6
2019-01-29T06:04:54.351Z,983.6
2019-01-29T06:05:55.028Z,983.6
2019-01-29T06:06:55.733Z,983.7
2019-01-29T06:07:56.398Z,983.7
2019-01-29T06:08:57.065Z,983.6
2019-01-29T06:09:57.731Z,983.7
2019-01-29T06:10:58.445Z,983.6
2019-01-29T06:11:59.112Z,983.6
2019-01-29T06:12:59.778Z,983.7
2019-01-29T06:14:00.493Z,983.7
2019-01-29T06:15:01.157Z,983.7
2019-01-29T06:16:01.876Z,983.7
2019-01-29T06:17:02.587Z,983.7
2019-01-29T06:18:03.253Z,983.7
2019-01-29T06:19:03.920Z,983.7
2019-01-29T06:20:04.586Z,983.7
2019-01-29T06:21:05.253Z,983.7
2019-01-29T06:22:05.970Z,983.6
2019-01-29T06:23:06.632Z,983.7
2019-01-29T06:24:07.299Z,983.6
2019-01-29T06:25:08.022Z,983.6
2019-01-29T06:26:08.729Z,983.6
2019-01-29T06:27:09.395Z,983.6
2019-01-29T06:28:10.102Z,983.6
2019-01-29T06:29:10.775Z,983.6
2019-01-29T06:30:11.441Z,983.5
2019-01-29T06:31:12.112Z,983.7
2019-01-29T06:32:12.775Z,983.7
2019-01-29T06:33:13.486Z,983.6
2019-01-29T06:34:14.147Z,983.6
2019-01-29T06:35:14.814Z,983.7
2019-01-29T06:36:15.483Z,983.7
2019-01-29T06:37:16.202Z,983.8
2019-01-29T06:38:16.861Z,983.7
2019-01-29T06:39:17.576Z,983.8
2019-01-29T06:40:18.243Z,983.8
2019-01-29T06:41:18.909Z,983.8
2019-01-29T06:42:19.578Z,983.8
2019-01-29T06:43:20.245Z,983.8
2019-01-29T06:44:20.912Z,983.8
2019-01-29T06:45:21.580Z,983.9
2019-01-29T06:46:22.248Z,983.8
2019-01-29T06:47:22.913Z,983.9
2019-01-29T06:48:23.581Z,983.9
2019-01-29T06:49:24.248Z,983.9
2019-01-29T06:50:24.922Z,983.9
2019-01-29T06:51:25.632Z,983.9
2019-01-29T06:52:26.299Z,983.9
2019-01-29T06:53:26.965Z,983.9
2019-01-29T06:54:33.996Z,983.9
2019-01-29T06:55:29.292Z,983.9
2019-01-29T06:56:29.979Z,983.9
2019-01-29T06:57:30.630Z,983.9
2019-01-29T06:58:31.342Z,983.9
2019-01-29T06:59:32.008Z,983.9
2019-01-29T07:00:32.678Z,983.9
2019-01-29T07:01:33.345Z,983.8
2019-01-29T07:03:20.417Z,983.8
2019-01-29T07:04:21.081Z,983.9
2019-01-29T07:05:21.754Z,983.8
2019-01-29T07:06:22.420Z,983.9
2019-01-29T07:07:23.086Z,983.8
2019-01-29T07:08:23.755Z,983.9
2019-01-29T07:09:24.423Z,983.9
2019-01-29T07:10:25.092Z,983.9
2019-01-29T07:11:25.760Z,983.9
2019-01-29T07:12:26.431Z,983.9
2019-01-29T07:13:27.101Z,984.0
2019-01-29T07:14:27.771Z,983.9
2019-01-29T07:15:28.439Z,983.9
2019-01-29T07:16:29.108Z,983.9
2019-01-29T07:17:29.779Z,984.0
2019-01-29T07:18:30.480Z,983.9
2019-01-29T07:19:31.120Z,984.0
2019-01-29T07:20:31.791Z,984.0
2019-01-29T07:21:32.462Z,984.0
2019-01-29T07:22:33.128Z,984.1
2019-01-29T07:23:33.840Z,984.1
2019-01-29T07:24:42.461Z,984.1
2019-01-29T07:25:36.177Z,984.2
2019-01-29T07:26:36.845Z,984.3
2019-01-29T07:27:37.516Z,984.3
2019-01-29T07:28:38.185Z,984.3
2019-01-29T07:29:38.857Z,984.4
2019-01-29T07:30:39.522Z,984.4
2019-01-29T07:31:40.191Z,984.5
2019-01-29T07:32:40.860Z,984.5
2019-01-29T07:33:42.008Z,984.5
2019-01-29T07:34:42.727Z,984.5
2019-01-29T07:35:43.397Z,984.6
2019-01-29T07:36:44.116Z,984.5
2019-01-29T07:37:44.787Z,984.6
2019-01-29T07:38:45.455Z,984.5
2019-01-29T07:39:46.126Z,984.6
2019-01-29T07:40:46.804Z,984.6
2019-01-29T07:41:47.466Z,984.6
2019-01-29T07:42:48.138Z,984.6
2019-01-29T07:43:48.863Z,984.6
2019-01-29T07:44:49.529Z,984.6
2019-01-29T07:45:50.249Z,984.6
2019-01-29T07:46:50.917Z,984.7
2019-01-29T07:47:51.588Z,984.7
2019-01-29T07:48:52.259Z,984.6
2019-01-29T07:49:52.929Z,984.6
2019-01-29T07:50:53.601Z,984.6
2019-01-29T07:51:54.272Z,984.7
2019-01-29T07:52:54.949Z,984.7
2019-01-29T07:53:55.675Z,984.7
2019-01-29T07:54:56.379Z,984.6
2019-01-29T07:55:57.051Z,984.7
2019-01-29T07:56:57.724Z,984.6
2019-01-29T07:57:58.391Z,984.7
2019-01-29T07:58:59.063Z,984.6
2019-01-29T07:59:59.733Z,984.7
2019-01-29T08:01:00.451Z,984.7
2019-01-29T08:02:01.121Z,984.7
2019-01-29T08:03:01.793Z,984.6
2019-01-29T08:04:02.511Z,984.6
2019-01-29T08:05:03.202Z,984.6
2019-01-29T08:06:03.900Z,984.6
2019-01-29T08:07:04.573Z,984.6
2019-01-29T08:08:05.242Z,984.6
2019-01-29T08:09:05.913Z,984.5
2019-01-29T08:10:06.585Z,984.6
2019-01-29T08:11:07.254Z,984.6
2019-01-29T08:12:07.925Z,984.6
2019-01-29T08:13:08.596Z,984.6
2019-01-29T08:14:09.268Z,984.7
2019-01-29T08:15:09.937Z,984.6
2019-01-29T08:16:10.609Z,984.6
2019-01-29T08:17:11.280Z,984.6
2019-01-29T08:18:11.950Z,984.7
2019-01-29T08:19:12.621Z,984.7
2019-01-29T08:20:13.294Z,984.7
2019-01-29T08:21:13.963Z,984.6
2019-01-29T08:22:14.635Z,984.7
2019-01-29T08:23:15.304Z,984.7
2019-01-29T08:24:15.976Z,984.7
2019-01-29T08:25:16.649Z,984.7
2019-01-29T08:26:17.365Z,984.7
2019-01-29T08:27:18.045Z,984.8
2019-01-29T08:28:18.716Z,984.8
2019-01-29T08:29:19.388Z,984.8
2019-01-29T08:30:20.058Z,984.8
2019-01-29T08:31:20.737Z,984.8
2019-01-29T08:32:21.403Z,984.8
2019-01-29T08:33:22.074Z,984.7
2019-01-29T08:34:22.745Z,984.8
2019-01-29T08:35:23.416Z,984.8
2019-01-29T08:36:24.088Z,984.8
2019-01-29T08:37:24.759Z,984.8
2019-01-29T08:38:25.434Z,984.8
2019-01-29T08:39:26.103Z,984.8
2019-01-29T08:40:26.774Z,984.8
2019-01-29T08:41:27.444Z,984.8
2019-01-29T08:42:28.115Z,984.8
2019-01-29T08:43:28.787Z,984.9
2019-01-29T08:44:29.459Z,984.9
2019-01-29T08:45:30.129Z,984.9
2019-01-29T08:46:30.802Z,984.9
2019-01-29T08:47:31.474Z,984.9
2019-01-29T08:48:32.144Z,984.9
2019-01-29T08:49:32.814Z,984.9
2019-01-29T08:50:33.487Z,984.9
2019-01-29T08:51:34.157Z,984.9
2019-01-29T08:52:34.831Z,984.9
2019-01-29T08:53:35.553Z,985.0
2019-01-29T08:54:36.224Z,984.9
2019-01-29T08:55:36.894Z,984.9
2019-01-29T08:56:37.565Z,984.9
2019-01-29T08:57:38.241Z,984.9
2019-01-29T08:58:38.912Z,984.9
2019-01-29T08:59:39.579Z,984.9
2019-01-29T09:00:40.253Z,984.9
2019-01-29T09:01:40.924Z,984.9
2019-01-29T09:02:41.596Z,984.9
2019-01-29T09:03:42.268Z,984.9
2019-01-29T09:04:42.939Z,984.9
2019-01-29T09:05:43.610Z,984.9
2019-01-29T09:06:44.282Z,984.9
2019-01-29T09:07:44.954Z,985.0
2019-01-29T09:08:45.626Z,985.0
2019-01-29T09:09:46.299Z,985.0
2019-01-29T09:10:46.975Z,984.9
2019-01-29T09:11:47.642Z,984.9
2019-01-29T09:12:48.315Z,984.9
2019-01-29T09:13:48.987Z,984.9
2019-01-29T09:14:49.659Z,985.0
2019-01-29T09:15:50.338Z,984.9
2019-01-29T09:16:51.007Z,984.9
2019-01-29T09:17:51.726Z,984.9
2019-01-29T09:18:52.398Z,984.9
2019-01-29T09:19:53.071Z,985.0
2019-01-29T09:20:53.747Z,984.9
2019-01-29T09:21:54.417Z,985.0
2019-01-29T09:22:55.090Z,985.0
2019-01-29T09:23:55.764Z,984.9
2019-01-29T09:24:56.438Z,984.9
2019-01-29T09:25:57.108Z,985.0
2019-01-29T09:26:57.782Z,984.9
2019-01-29T09:27:58.456Z,984.9
2019-01-29T09:28:59.128Z,984.9
2019-01-29T09:29:59.804Z,984.9
2019-01-29T09:31:00.478Z,985.0
2019-01-29T09:32:01.151Z,985.0
2019-01-29T09:33:01.822Z,985.1
2019-01-29T09:34:02.498Z,985.0
2019-01-29T09:35:03.170Z,985.0
2019-01-29T09:36:03.843Z,985.0
2019-01-29T09:37:04.516Z,985.0
2019-01-29T09:38:05.191Z,985.0
2019-01-29T09:39:05.865Z,985.0
2019-01-29T09:40:06.540Z,984.9
2019-01-29T09:41:07.211Z,984.9
2019-01-29T09:42:07.884Z,985.0
2019-01-29T09:43:08.559Z,984.9
2019-01-29T09:44:09.231Z,984.9
2019-01-29T09:45:09.905Z,984.9
2019-01-29T09:46:10.577Z,984.9
2019-01-29T09:47:11.250Z,984.9
2019-01-29T09:48:11.923Z,984.9
2019-01-29T09:49:12.596Z,984.9
2019-01-29T09:50:13.355Z,984.9
2019-01-29T09:51:13.986Z,984.9
2019-01-29T09:52:14.661Z,984.9
2019-01-29T09:53:15.336Z,984.9
2019-01-29T09:54:16.008Z,985.0
2019-01-29T09:55:16.728Z,984.9
2019-01-29T09:56:17.397Z,984.9
2019-01-29T09:57:18.070Z,985.0
2019-01-29T09:58:18.744Z,984.9
2019-01-29T09:59:19.418Z,984.9
2019-01-29T10:00:21.592Z,984.9
2019-01-29T10:01:21.756Z,984.9
2019-01-29T10:02:22.428Z,985.0
2019-01-29T10:03:23.103Z,984.9
2019-01-29T10:04:23.776Z,984.9
2019-01-29T10:05:24.451Z,984.9
2019-01-29T10:06:25.173Z,984.9
2019-01-29T10:07:25.845Z,984.9
2019-01-29T10:08:26.519Z,984.9
2019-01-29T10:09:27.193Z,985.0
2019-01-29T10:10:27.866Z,984.9
2019-01-29T10:11:28.663Z,984.9
2019-01-29T10:12:29.306Z,984.9
2019-01-29T10:13:29.982Z,984.9
2019-01-29T10:14:30.655Z,984.9
2019-01-29T10:15:31.328Z,984.9
2019-01-29T10:16:32.006Z,984.8
2019-01-29T10:17:32.677Z,984.8
2019-01-29T10:18:33.350Z,984.8
2019-01-29T10:19:34.026Z,984.8
2019-01-29T10:20:34.699Z,984.8
2019-01-29T10:21:35.372Z,984.8
2019-01-29T10:22:36.046Z,984.9
2019-01-29T10:23:36.721Z,984.9
2019-01-29T10:24:37.395Z,984.8
2019-01-29T10:25:38.275Z,984.9
2019-01-29T10:26:38.793Z,984.8
2019-01-29T10:27:39.467Z,984.8
2019-01-29T10:28:40.141Z,984.8
2019-01-29T10:29:40.815Z,984.8
2019-01-29T10:30:41.492Z,984.8
2019-01-29T10:31:42.226Z,984.8
2019-01-29T10:32:42.943Z,984.8
2019-01-29T10:33:43.658Z,984.8
2019-01-29T10:34:44.339Z,984.8
2019-01-29T10:35:45.010Z,984.8
2019-01-29T10:36:45.682Z,984.7
2019-01-29T10:37:46.357Z,984.8
2019-01-29T10:38:47.032Z,984.8
2019-01-29T10:39:47.705Z,984.8
2019-01-29T10:40:48.380Z,984.8
2019-01-29T10:41:49.054Z,984.7
2019-01-29T10:42:49.729Z,984.7
2019-01-29T10:43:50.401Z,984.7
2019-01-29T10:44:51.078Z,984.7
2019-01-29T10:45:51.750Z,984.7
2019-01-29T10:46:52.424Z,984.7
2019-01-29T10:47:53.098Z,984.7
2019-01-29T10:48:53.774Z,984.7
2019-01-29T10:49:54.448Z,984.7
2019-01-29T10:50:55.123Z,984.7
2019-01-29T10:51:55.797Z,984.6
2019-01-29T10:52:56.470Z,984.7
2019-01-29T10:53:57.148Z,984.7
2019-01-29T10:54:58.100Z,984.6
2019-01-29T10:55:58.798Z,984.7
2019-01-29T10:56:59.473Z,984.7
2019-01-29T10:58:00.204Z,984.7
2019-01-29T10:59:00.868Z,984.6
2019-01-29T11:00:01.555Z,984.6
2019-01-29T11:01:02.219Z,984.6
2019-01-29T11:02:02.892Z,984.6
2019-01-29T11:03:03.566Z,984.6
2019-01-29T11:04:04.241Z,984.6
2019-01-29T11:05:04.922Z,984.6
2019-01-29T11:06:05.589Z,984.6
2019-01-29T11:07:06.263Z,984.6
2019-01-29T11:08:06.938Z,984.6
2019-01-29T11:09:07.612Z,984.6
2019-01-29T11:10:08.285Z,984.5
2019-01-29T11:11:08.963Z,984.5
2019-01-29T11:12:09.684Z,984.5
2019-01-29T11:13:10.360Z,984.5
2019-01-29T11:14:11.066Z,984.5
2019-01-29T11:15:11.738Z,984.6
2019-01-29T11:16:12.411Z,984.5
2019-01-29T11:17:13.090Z,984.5
2019-01-29T11:18:13.760Z,984.5
2019-01-29T11:19:14.433Z,984.5
2019-01-29T11:20:15.110Z,984.5
2019-01-29T11:21:15.831Z,984.5
2019-01-29T11:22:16.509Z,984.5
2019-01-29T11:23:17.181Z,984.5
2019-01-29T11:24:17.854Z,984.5
2019-01-29T11:25:18.529Z,984.5
2019-01-29T11:26:19.203Z,984.5
2019-01-29T11:27:19.877Z,984.5
2019-01-29T11:28:20.554Z,984.6
2019-01-29T11:29:21.226Z,984.5
2019-01-29T11:30:21.903Z,984.5
2019-01-29T11:31:22.578Z,984.5
2019-01-29T11:32:23.250Z,984.5
2019-01-29T11:33:23.921Z,984.5
2019-01-29T11:34:24.597Z,984.5
2019-01-29T11:35:25.270Z,984.5
2019-01-29T11:36:25.993Z,984.5
2019-01-29T11:37:26.716Z,984.5
2019-01-29T11:38:27.390Z,984.5
2019-01-29T11:39:28.065Z,984.4
2019-01-29T11:40:28.739Z,984.4
2019-01-29T11:41:29.415Z,984.4
2019-01-29T11:42:30.088Z,984.5
2019-01-29T11:43:30.761Z,984.4
2019-01-29T11:44:31.436Z,984.4
2019-01-29T11:45:32.110Z,984.4
2019-01-29T11:46:32.784Z,984.5
2019-01-29T11:47:33.461Z,984.5
2019-01-29T11:48:34.181Z,984.4
2019-01-29T11:49:34.855Z,984.4
2019-01-29T11:50:35.531Z,984.5
2019-01-29T11:51:36.202Z,984.5
2019-01-29T11:52:36.878Z,984.5
2019-01-29T11:53:37.552Z,984.5
2019-01-29T11:54:38.272Z,984.4
2019-01-29T11:55:38.947Z,984.5
2019-01-29T11:56:39.621Z,984.4
2019-01-29T11:57:40.294Z,984.4
2019-01-29T11:58:40.969Z,984.4
2019-01-29T11:59:41.643Z,984.4
2019-01-29T12:00:42.323Z,984.4
2019-01-29T12:01:42.991Z,984.5
2019-01-29T12:02:43.663Z,984.3
2019-01-29T12:03:44.340Z,984.4
2019-01-29T12:04:45.011Z,984.4
2019-01-29T12:05:45.685Z,984.4
2019-01-29T12:06:46.360Z,984.4
2019-01-29T12:07:47.083Z,984.4
2019-01-29T12:08:47.758Z,984.3
2019-01-29T12:09:48.431Z,984.3
2019-01-29T12:10:49.158Z,984.3
2019-01-29T12:11:49.829Z,984.3
2019-01-29T12:12:50.504Z,984.3
2019-01-29T12:13:51.177Z,984.3
2019-01-29T12:14:51.852Z,984.3
2019-01-29T12:15:52.525Z,984.3
2019-01-29T12:16:53.199Z,984.3
2019-01-29T12:17:53.872Z,984.2
2019-01-29T12:18:54.546Z,984.2
2019-01-29T12:19:55.423Z,984.2
2019-01-29T12:20:56.098Z,984.2
2019-01-29T12:21:56.775Z,984.2
2019-01-29T12:22:57.447Z,984.3
2019-01-29T12:23:58.125Z,984.3
2019-01-29T12:24:58.842Z,984.3
2019-01-29T12:25:59.517Z,984.2
2019-01-29T12:27:00.190Z,984.2
2019-01-29T12:28:00.863Z,984.2
2019-01-29T12:29:01.539Z,984.2
2019-01-29T12:30:02.215Z,984.2
2019-01-29T12:31:02.886Z,984.2
2019-01-29T12:32:03.561Z,984.2
2019-01-29T12:33:04.236Z,984.1
2019-01-29T12:34:04.910Z,984.1
2019-01-29T12:35:05.620Z,984.1
2019-01-29T12:36:06.307Z,984.1
2019-01-29T12:37:06.982Z,984.1
2019-01-29T12:38:07.657Z,984.1
2019-01-29T12:39:08.335Z,984.1
2019-01-29T12:40:09.005Z,984.1
2019-01-29T12:41:09.681Z,984.1
2019-01-29T12:42:10.355Z,984.1
2019-01-29T12:43:11.028Z,984.1
2019-01-29T12:44:11.700Z,984.1
2019-01-29T12:45:12.376Z,984.1
2019-01-29T12:46:13.051Z,984.1
2019-01-29T12:47:13.728Z,984.1
2019-01-29T12:48:14.407Z,984.1
2019-01-29T12:49:15.080Z,984.1
2019-01-29T12:50:15.755Z,984.1
2019-01-29T12:51:16.429Z,984.0
2019-01-29T12:52:17.110Z,984.1
2019-01-29T12:53:17.781Z,984.1
2019-01-29T12:54:18.453Z,984.1
2019-01-29T12:55:19.130Z,984.0
2019-01-29T12:56:21.506Z,984.0
2019-01-29T12:57:21.520Z,984.1
2019-01-29T12:58:22.191Z,984.0
2019-01-29T12:59:22.866Z,984.0
2019-01-29T13:00:23.541Z,984.0
2019-01-29T13:01:24.218Z,984.0
2019-01-29T13:02:24.894Z,984.0